createdAt,value
2023-02-19T00:00:22.183Z,51.6
2023-02-19T00:01:23.594Z,51.4
2023-02-19T00:02:25.000Z,51.5
2023-02-19T00:03:26.443Z,51.6
2023-02-19T00:04:27.867Z,51.3
2023-02-19T00:05:29.253Z,51.5
2023-02-19T00:06:30.654Z,51.4
2023-02-19T00:07:32.060Z,51.3
2023-02-19T00:08:33.463Z,51.4
2023-02-19T00:09:34.888Z,51.3
2023-02-19T00:10:36.294Z,51.3
2023-02-19T00:11:37.714Z,51.4
2023-02-19T00:12:39.108Z,51.3
2023-02-19T00:13:40.600Z,51.2
2023-02-19T00:14:41.996Z,51.1
2023-02-19T00:15:43.439Z,51
2023-02-19T00:16:44.846Z,51.1
2023-02-19T00:17:46.265Z,51.2
2023-02-19T00:18:47.672Z,51
2023-02-19T00:19:49.096Z,51.1
2023-02-19T00:20:50.490Z,51
2023-02-19T00:21:51.882Z,51
2023-02-19T00:22:53.289Z,51
2023-02-19T00:23:54.681Z,50.9
2023-02-19T00:24:56.075Z,50.9
2023-02-19T00:26:17.460Z,50.8
2023-02-19T00:27:19.549Z,51
2023-02-19T00:28:20.983Z,50.5
2023-02-19T00:29:22.432Z,50.5
2023-02-19T00:30:23.896Z,50.6
2023-02-19T00:31:25.699Z,50.5
2023-02-19T00:32:27.229Z,50.5
2023-02-19T00:33:28.630Z,50.5
2023-02-19T00:34:30.028Z,50.5
2023-02-19T00:35:31.419Z,50.6
2023-02-19T00:36:32.815Z,50.5
2023-02-19T00:37:34.219Z,50.6
2023-02-19T00:38:35.724Z,50.6
2023-02-19T00:39:37.146Z,50.7
2023-02-19T00:40:38.520Z,50.6
2023-02-19T00:41:39.943Z,50.6
2023-02-19T00:42:41.342Z,50.5
2023-02-19T00:43:42.732Z,50.5
2023-02-19T00:44:44.171Z,50.6
2023-02-19T00:45:45.583Z,50.6
2023-02-19T00:46:47.034Z,50.4
2023-02-19T00:47:48.439Z,50.4
2023-02-19T00:48:49.823Z,50.3
2023-02-19T00:49:51.227Z,50.3
2023-02-19T00:50:52.604Z,50.4
2023-02-19T00:51:53.997Z,50.4
2023-02-19T00:52:55.385Z,50.3
2023-02-19T00:53:56.785Z,50.4
2023-02-19T00:54:58.168Z,50.3
2023-02-19T00:55:59.571Z,50.3
2023-02-19T00:57:00.976Z,50.2
2023-02-19T00:58:02.360Z,50.2
2023-02-19T00:59:03.764Z,50.2
2023-02-19T01:00:05.328Z,50.3
2023-02-19T01:01:06.751Z,50.2
2023-02-19T01:02:08.156Z,50.3
2023-02-19T01:03:09.570Z,50.1
2023-02-19T01:04:10.995Z,50.1
2023-02-19T01:05:12.409Z,50.2
2023-02-19T01:06:13.801Z,50.1
2023-02-19T01:07:15.198Z,50
2023-02-19T01:08:16.681Z,50.2
2023-02-19T01:09:18.122Z,50.1
2023-02-19T01:10:19.534Z,50
2023-02-19T01:11:20.948Z,50
2023-02-19T01:12:22.372Z,49.9
2023-02-19T01:13:23.775Z,50
2023-02-19T01:14:25.197Z,50
2023-02-19T01:15:26.640Z,49.9
2023-02-19T01:16:28.309Z,49.9
2023-02-19T01:17:29.772Z,49.8
2023-02-19T01:18:31.176Z,50.1
2023-02-19T01:19:32.615Z,50
2023-02-19T01:20:34.014Z,49.9
2023-02-19T01:21:35.429Z,49.8
2023-02-19T01:22:36.854Z,49.7
2023-02-19T01:23:38.255Z,49.7
2023-02-19T01:24:39.678Z,49.6
2023-02-19T01:25:41.104Z,49.6
2023-02-19T01:26:42.487Z,49.6
2023-02-19T01:27:43.904Z,49.6
2023-02-19T01:28:45.324Z,49.5
2023-02-19T01:29:46.740Z,49.6
2023-02-19T01:30:48.197Z,49.5
2023-02-19T01:31:49.966Z,49.5
2023-02-19T01:32:51.479Z,49.5
2023-02-19T01:33:52.912Z,49.4
2023-02-19T01:34:54.317Z,49.4
2023-02-19T01:35:55.731Z,49.5
2023-02-19T01:36:57.157Z,49.4
2023-02-19T01:37:58.563Z,49.3
2023-02-19T01:38:59.955Z,49.3
2023-02-19T01:40:01.399Z,49.2
2023-02-19T01:41:02.803Z,49.3
2023-02-19T01:42:04.227Z,49.3
2023-02-19T01:43:05.642Z,49.2
2023-02-19T01:44:07.047Z,49.3
2023-02-19T01:45:08.440Z,49.2
2023-02-19T01:46:10.180Z,49.2
2023-02-19T01:47:11.612Z,49
2023-02-19T01:48:13.021Z,49.1
2023-02-19T01:49:14.443Z,49.1
2023-02-19T01:50:15.832Z,49
2023-02-19T01:51:17.221Z,49
2023-02-19T01:52:18.619Z,49.1
2023-02-19T01:53:20.022Z,49
2023-02-19T01:54:21.447Z,49
2023-02-19T01:55:22.888Z,49
2023-02-19T01:56:24.285Z,49.1
2023-02-19T01:57:25.778Z,49
2023-02-19T01:58:27.183Z,49
2023-02-19T01:59:28.586Z,48.9
2023-02-19T02:00:30.093Z,49
2023-02-19T02:01:31.558Z,49
2023-02-19T02:02:32.980Z,48.9
2023-02-19T02:03:34.364Z,49
2023-02-19T02:04:35.757Z,48.9
2023-02-19T02:05:37.160Z,48.9
2023-02-19T02:06:38.567Z,48.8
2023-02-19T02:07:39.982Z,48.8
2023-02-19T02:08:41.426Z,48.9
2023-02-19T02:09:42.848Z,48.8
2023-02-19T02:10:44.266Z,48.9
2023-02-19T02:11:45.679Z,48.8
2023-02-19T02:12:47.072Z,48.9
2023-02-19T02:13:48.496Z,48.9
2023-02-19T02:14:49.899Z,48.9
2023-02-19T02:15:51.354Z,48.9
2023-02-19T02:16:52.830Z,48.8
2023-02-19T02:17:54.257Z,48.8
2023-02-19T02:18:55.696Z,48.7
2023-02-19T02:19:57.104Z,48.9
2023-02-19T02:20:58.536Z,48.7
2023-02-19T02:21:59.948Z,48.6
2023-02-19T02:23:01.357Z,48.8
2023-02-19T02:24:02.757Z,48.6
2023-02-19T02:25:04.162Z,48.7
2023-02-19T02:26:05.587Z,48.7
2023-02-19T02:27:06.999Z,48.8
2023-02-19T02:28:08.402Z,48.7
2023-02-19T02:29:09.798Z,48.7
2023-02-19T02:30:11.383Z,48.6
2023-02-19T02:31:13.847Z,48.6
2023-02-19T02:32:15.803Z,48.6
2023-02-19T02:33:17.323Z,48.6
2023-02-19T02:34:18.744Z,48.6
2023-02-19T02:35:20.141Z,48.5
2023-02-19T02:36:21.698Z,48.3
2023-02-19T02:37:23.197Z,48.3
2023-02-19T02:38:24.623Z,48.3
2023-02-19T02:39:26.030Z,48.3
2023-02-19T02:40:27.431Z,48.2
2023-02-19T02:41:28.877Z,48.1
2023-02-19T02:42:30.330Z,48
2023-02-19T02:43:31.754Z,48
2023-02-19T02:44:33.146Z,48
2023-02-19T02:45:34.636Z,48
2023-02-19T02:46:36.098Z,48
2023-02-19T02:47:37.508Z,48
2023-02-19T02:48:38.947Z,48
2023-02-19T02:49:40.381Z,48
2023-02-19T02:50:41.792Z,47.9
2023-02-19T02:51:43.184Z,47.7
2023-02-19T02:52:44.590Z,47.9
2023-02-19T02:53:45.991Z,47.9
2023-02-19T02:54:47.371Z,47.8
2023-02-19T02:55:48.811Z,47.9
2023-02-19T02:56:50.256Z,47.9
2023-02-19T02:57:51.671Z,47.8
2023-02-19T02:58:53.115Z,47.8
2023-02-19T02:59:54.515Z,47.7
2023-02-19T03:00:55.972Z,47.8
2023-02-19T03:01:57.455Z,47.8
2023-02-19T03:02:58.838Z,47.9
2023-02-19T03:04:00.252Z,47.8
2023-02-19T03:05:01.656Z,47.8
2023-02-19T03:06:03.053Z,47.8
2023-02-19T03:07:04.484Z,47.6
2023-02-19T03:08:05.891Z,47.6
2023-02-19T03:09:07.347Z,47.7
2023-02-19T03:10:08.758Z,47.6
2023-02-19T03:11:10.853Z,47.6
2023-02-19T03:12:12.405Z,47.6
2023-02-19T03:13:13.828Z,47.5
2023-02-19T03:14:15.293Z,47.5
2023-02-19T03:15:16.706Z,47.5
2023-02-19T03:16:18.157Z,47.5
2023-02-19T03:17:19.557Z,47.4
2023-02-19T03:18:20.980Z,47.5
2023-02-19T03:19:22.405Z,47.5
2023-02-19T03:20:23.838Z,47.4
2023-02-19T03:21:25.241Z,47.4
2023-02-19T03:22:26.642Z,47.3
2023-02-19T03:23:28.046Z,47.4
2023-02-19T03:24:29.453Z,47.3
2023-02-19T03:25:30.874Z,47.3
2023-02-19T03:26:32.278Z,47.3
2023-02-19T03:27:33.707Z,47.3
2023-02-19T03:28:35.130Z,47.2
2023-02-19T03:29:36.538Z,47.3
2023-02-19T03:30:38.133Z,47.3
2023-02-19T03:31:39.836Z,47.2
2023-02-19T03:32:41.370Z,47.3
2023-02-19T03:33:42.787Z,47.3
2023-02-19T03:34:44.177Z,47.2
2023-02-19T03:35:45.564Z,47.2
2023-02-19T03:36:46.976Z,47.2
2023-02-19T03:37:48.390Z,47.2
2023-02-19T03:38:49.804Z,47.1
2023-02-19T03:39:51.208Z,47.2
2023-02-19T03:40:52.593Z,47.1
2023-02-19T03:41:54.011Z,47.2
2023-02-19T03:42:56.523Z,47
2023-02-19T03:43:57.929Z,47
2023-02-19T03:44:59.331Z,47
2023-02-19T03:46:00.848Z,46.9
2023-02-19T03:47:02.245Z,47
2023-02-19T03:48:03.637Z,47
2023-02-19T03:49:05.053Z,47
2023-02-19T03:50:06.480Z,46.9
2023-02-19T03:51:08.504Z,46.9
2023-02-19T03:52:10.095Z,46.9
2023-02-19T03:53:11.490Z,46.8
2023-02-19T03:54:12.876Z,46.9
2023-02-19T03:55:14.268Z,46.8
2023-02-19T03:56:15.654Z,46.7
2023-02-19T03:57:17.057Z,46.7
2023-02-19T03:58:18.487Z,46.7
2023-02-19T03:59:19.896Z,46.8
2023-02-19T04:00:21.293Z,46.7
2023-02-19T04:01:22.696Z,46.8
2023-02-19T04:02:24.173Z,46.8
2023-02-19T04:03:25.596Z,46.8
2023-02-19T04:04:27.059Z,46.7
2023-02-19T04:05:28.472Z,46.6
2023-02-19T04:06:29.855Z,46.5
2023-02-19T04:07:31.263Z,46.5
2023-02-19T04:08:32.655Z,46.6
2023-02-19T04:09:34.028Z,46.6
2023-02-19T04:10:35.404Z,46.5
2023-02-19T04:11:36.772Z,46.5
2023-02-19T04:12:38.153Z,46.3
2023-02-19T04:13:39.566Z,46.3
2023-02-19T04:14:40.995Z,46.3
2023-02-19T04:15:42.408Z,46.4
2023-02-19T04:16:43.867Z,46.4
2023-02-19T04:17:45.286Z,46.6
2023-02-19T04:18:46.667Z,46.7
2023-02-19T04:19:48.061Z,46.8
2023-02-19T04:20:49.444Z,46.6
2023-02-19T04:21:50.830Z,46.6
2023-02-19T04:22:52.223Z,46.8
2023-02-19T04:23:53.614Z,46.8
2023-02-19T04:24:54.991Z,46.8
2023-02-19T04:25:56.462Z,46.8
2023-02-19T04:26:57.867Z,46.7
2023-02-19T04:27:59.261Z,46.6
2023-02-19T04:29:00.686Z,46.6
2023-02-19T04:30:02.227Z,46.7
2023-02-19T04:31:03.813Z,46.6
2023-02-19T04:32:05.333Z,46.8
2023-02-19T04:33:06.809Z,46.7
2023-02-19T04:34:08.217Z,46.7
2023-02-19T04:35:09.616Z,46.7
2023-02-19T04:36:11.056Z,47
2023-02-19T04:37:12.460Z,47.3
2023-02-19T04:38:13.847Z,47.5
2023-02-19T04:39:15.222Z,47.2
2023-02-19T04:40:16.618Z,47
2023-02-19T04:41:18.028Z,47.4
2023-02-19T04:42:19.443Z,47.1
2023-02-19T04:43:20.854Z,47
2023-02-19T04:44:22.240Z,47.2
2023-02-19T04:45:23.638Z,47.2
2023-02-19T04:46:25.261Z,47.2
2023-02-19T04:47:26.663Z,47.6
2023-02-19T04:48:28.078Z,48.4
2023-02-19T04:49:32.458Z,48.5
2023-02-19T04:50:33.883Z,48.8
2023-02-19T04:51:35.345Z,48.7
2023-02-19T04:52:36.781Z,49.1
2023-02-19T04:53:38.172Z,48.8
2023-02-19T04:54:39.604Z,48.9
2023-02-19T04:55:40.974Z,49
2023-02-19T04:56:42.498Z,48.8
2023-02-19T04:57:43.870Z,49.2
2023-02-19T04:58:45.253Z,49
2023-02-19T04:59:46.659Z,48.9
2023-02-19T05:00:48.054Z,49.1
2023-02-19T05:01:49.527Z,48.9
2023-02-19T05:02:50.919Z,48.9
2023-02-19T05:03:52.354Z,48.9
2023-02-19T05:04:53.790Z,48.8
2023-02-19T05:05:55.172Z,48.7
2023-02-19T05:06:56.567Z,48.7
2023-02-19T05:07:57.942Z,48.8
2023-02-19T05:08:59.468Z,48.8
2023-02-19T05:10:00.868Z,48.8
2023-02-19T05:11:02.268Z,48.7
2023-02-19T05:12:03.694Z,48.1
2023-02-19T05:13:05.094Z,46
2023-02-19T05:14:06.507Z,45.5
2023-02-19T05:15:07.908Z,45.1
2023-02-19T05:16:09.442Z,44.8
2023-02-19T05:17:10.907Z,44.3
2023-02-19T05:18:12.311Z,43.8
2023-02-19T05:19:13.688Z,43.6
2023-02-19T05:20:15.090Z,43.4
2023-02-19T05:21:16.487Z,43.2
2023-02-19T05:22:17.919Z,42.8
2023-02-19T05:23:19.331Z,42.7
2023-02-19T05:24:20.754Z,42.6
2023-02-19T05:25:22.162Z,42
2023-02-19T05:26:23.599Z,41.9
2023-02-19T05:27:25.008Z,41.9
2023-02-19T05:28:26.404Z,41.5
2023-02-19T05:29:27.793Z,41
2023-02-19T05:30:29.230Z,41.1
2023-02-19T05:31:31.044Z,41
2023-02-19T05:32:32.516Z,40.6
2023-02-19T05:33:33.945Z,40.6
2023-02-19T05:34:35.347Z,40.5
2023-02-19T05:35:36.721Z,40
2023-02-19T05:36:38.123Z,40.1
2023-02-19T05:37:39.540Z,40
2023-02-19T05:38:40.961Z,39.6
2023-02-19T05:39:42.374Z,39.3
2023-02-19T05:40:43.769Z,39.3
2023-02-19T05:41:45.186Z,39.2
2023-02-19T05:42:46.587Z,38.9
2023-02-19T05:43:48.048Z,38.9
2023-02-19T05:44:49.585Z,38.8
2023-02-19T05:45:51.146Z,38.5
2023-02-19T05:46:52.546Z,38.3
2023-02-19T05:47:53.987Z,38.5
2023-02-19T05:48:55.400Z,38.2
2023-02-19T05:49:56.808Z,38.3
2023-02-19T05:50:58.208Z,38
2023-02-19T05:51:59.620Z,38
2023-02-19T05:53:01.004Z,37.9
2023-02-19T05:54:02.410Z,37.6
2023-02-19T05:55:03.844Z,37.5
2023-02-19T05:56:05.294Z,37.2
2023-02-19T05:57:06.698Z,37.3
2023-02-19T05:58:08.088Z,37.2
2023-02-19T05:59:09.519Z,37
2023-02-19T06:00:10.937Z,36.9
2023-02-19T06:01:12.538Z,37
2023-02-19T06:02:13.941Z,37
2023-02-19T06:03:15.348Z,36.8
2023-02-19T06:04:16.762Z,36.7
2023-02-19T06:05:18.186Z,36.6
2023-02-19T06:06:19.609Z,36.7
2023-02-19T06:07:21.012Z,36.8
2023-02-19T06:08:22.400Z,36.4
2023-02-19T06:09:23.795Z,36.8
2023-02-19T06:10:25.212Z,36.9
2023-02-19T06:11:26.653Z,37.9
2023-02-19T06:12:28.052Z,38.3
2023-02-19T06:13:29.438Z,38.1
2023-02-19T06:14:30.810Z,41.8
2023-02-19T06:15:32.224Z,38.5
2023-02-19T06:16:33.642Z,38.8
2023-02-19T06:17:35.042Z,37.8
2023-02-19T06:18:36.454Z,39.5
2023-02-19T06:19:37.888Z,38.2
2023-02-19T06:20:39.505Z,38.6
2023-02-19T06:21:40.900Z,38
2023-02-19T06:22:42.305Z,37.4
2023-02-19T06:23:43.699Z,37.2
2023-02-19T06:24:45.090Z,37.8
2023-02-19T06:25:46.474Z,37.6
2023-02-19T06:26:47.884Z,37.6
2023-02-19T06:27:49.293Z,37.6
2023-02-19T06:28:50.687Z,37.4
2023-02-19T06:29:52.078Z,37.6
2023-02-19T06:30:53.456Z,37.7
2023-02-19T06:31:55.174Z,37.4
2023-02-19T06:32:56.666Z,37.2
2023-02-19T06:33:58.084Z,37.2
2023-02-19T06:34:59.504Z,37.3
2023-02-19T06:36:00.889Z,37
2023-02-19T06:37:02.344Z,36.9
2023-02-19T06:38:03.737Z,37.2
2023-02-19T06:39:05.122Z,37.1
2023-02-19T06:40:06.545Z,36.8
2023-02-19T06:41:08.621Z,37.2
2023-02-19T06:42:10.180Z,37.1
2023-02-19T06:43:11.587Z,37
2023-02-19T06:44:12.984Z,37
2023-02-19T06:45:14.366Z,37
2023-02-19T06:46:15.975Z,36.9
2023-02-19T06:47:17.375Z,36.8
2023-02-19T06:48:18.758Z,36.5
2023-02-19T06:49:20.143Z,36.5
2023-02-19T06:50:21.551Z,36.6
2023-02-19T06:51:22.951Z,36.5
2023-02-19T06:52:24.354Z,36.5
2023-02-19T06:53:25.723Z,36.5
2023-02-19T06:54:27.133Z,36.5
2023-02-19T06:55:28.527Z,36.3
2023-02-19T06:56:29.942Z,36.2
2023-02-19T06:57:31.425Z,36.3
2023-02-19T06:58:32.848Z,36.2
2023-02-19T06:59:34.254Z,36.2
2023-02-19T07:00:35.737Z,36.5
2023-02-19T07:01:37.155Z,36.5
2023-02-19T07:02:38.569Z,36.9
2023-02-19T07:03:39.980Z,36.1
2023-02-19T07:04:41.383Z,37.1
2023-02-19T07:05:42.789Z,35.3
2023-02-19T07:06:44.179Z,36.1
2023-02-19T07:07:45.587Z,38
2023-02-19T07:08:47.010Z,37.7
2023-02-19T07:09:48.399Z,37.2
2023-02-19T07:10:49.785Z,37.8
2023-02-19T07:11:51.167Z,37.2
2023-02-19T07:12:52.522Z,38
2023-02-19T07:13:53.945Z,35.9
2023-02-19T07:14:55.371Z,37.2
2023-02-19T07:15:56.779Z,34.9
2023-02-19T07:16:58.173Z,34.7
2023-02-19T07:17:59.570Z,34.6
2023-02-19T07:19:00.965Z,33.9
2023-02-19T07:20:02.385Z,34.5
2023-02-19T07:21:03.791Z,34.6
2023-02-19T07:22:05.176Z,34.1
2023-02-19T07:23:06.559Z,35
2023-02-19T07:24:07.975Z,36.2
2023-02-19T07:25:09.357Z,35.6
2023-02-19T07:26:10.801Z,35.5
2023-02-19T07:27:12.215Z,34.7
2023-02-19T07:28:13.611Z,34.5
2023-02-19T07:29:14.993Z,35.3
2023-02-19T07:30:16.500Z,33.5
2023-02-19T07:31:18.294Z,33.5
2023-02-19T07:32:19.839Z,34.6
2023-02-19T07:33:21.264Z,33.2
2023-02-19T07:34:22.664Z,33.8
2023-02-19T07:35:24.087Z,34.9
2023-02-19T07:36:25.518Z,34
2023-02-19T07:37:26.904Z,34
2023-02-19T07:38:28.321Z,33.8
2023-02-19T07:39:29.696Z,34
2023-02-19T07:40:31.100Z,33.1
2023-02-19T07:41:32.504Z,33.9
2023-02-19T07:42:33.897Z,33.5
2023-02-19T07:43:35.316Z,34.1
2023-02-19T07:44:36.717Z,33.6
2023-02-19T07:45:38.234Z,34
2023-02-19T07:46:39.735Z,34.1
2023-02-19T07:47:41.170Z,34.5
2023-02-19T07:48:42.622Z,34.8
2023-02-19T07:49:44.026Z,34.7
2023-02-19T07:50:45.466Z,34.7
2023-02-19T07:51:46.874Z,33.4
2023-02-19T07:52:48.300Z,33.2
2023-02-19T07:53:49.693Z,32.1
2023-02-19T07:54:51.088Z,33.4
2023-02-19T07:55:52.464Z,34
2023-02-19T07:56:53.899Z,34.1
2023-02-19T07:57:55.291Z,33.9
2023-02-19T07:58:56.675Z,33.9
2023-02-19T07:59:58.079Z,33.9
2023-02-19T08:00:59.500Z,33.4
2023-02-19T08:02:00.936Z,33.6
2023-02-19T08:03:02.454Z,33.6
2023-02-19T08:04:03.888Z,33.3
2023-02-19T08:05:05.273Z,34.8
2023-02-19T08:06:06.697Z,35.3
2023-02-19T08:07:08.137Z,35.3
2023-02-19T08:08:09.660Z,34.1
2023-02-19T08:09:11.080Z,33.9
2023-02-19T08:10:12.541Z,34.1
2023-02-19T08:11:13.933Z,34.2
2023-02-19T08:12:15.356Z,33.8
2023-02-19T08:13:16.764Z,33.1
2023-02-19T08:14:18.257Z,33
2023-02-19T08:15:22.640Z,33
2023-02-19T08:16:43.159Z,35.2
2023-02-19T08:17:44.969Z,32.8
2023-02-19T08:18:46.377Z,33.9
2023-02-19T08:19:47.806Z,35
2023-02-19T08:20:49.193Z,34.8
2023-02-19T08:21:50.620Z,34.8
2023-02-19T08:22:52.053Z,33.9
2023-02-19T08:23:53.464Z,33.5
2023-02-19T08:24:54.896Z,32.9
2023-02-19T08:25:56.299Z,33.2
2023-02-19T08:26:57.691Z,33.5
2023-02-19T08:27:59.112Z,33.4
2023-02-19T08:29:00.512Z,33.9
2023-02-19T08:30:02.032Z,34.8
2023-02-19T08:31:03.671Z,32.5
2023-02-19T08:32:05.251Z,32.5
2023-02-19T08:33:06.667Z,31.6
2023-02-19T08:34:08.080Z,31
2023-02-19T08:35:09.473Z,30.9
2023-02-19T08:36:10.893Z,31.2
2023-02-19T08:37:12.293Z,32.4
2023-02-19T08:38:13.715Z,33.2
2023-02-19T08:39:15.109Z,32.5
2023-02-19T08:40:16.497Z,31.8
2023-02-19T08:41:17.911Z,32.1
2023-02-19T08:42:19.307Z,33.1
2023-02-19T08:43:20.766Z,31.4
2023-02-19T08:44:22.182Z,31.9
2023-02-19T08:45:23.673Z,31.4
2023-02-19T08:46:25.330Z,30.9
2023-02-19T08:47:26.770Z,31.9
2023-02-19T08:48:28.204Z,30.3
2023-02-19T08:49:29.616Z,30.9
2023-02-19T08:50:31.021Z,30.9
2023-02-19T08:51:32.425Z,32
2023-02-19T08:52:33.828Z,31.5
2023-02-19T08:53:35.204Z,30.7
2023-02-19T08:54:37.640Z,30
2023-02-19T08:55:39.043Z,32.5
2023-02-19T08:56:40.497Z,31.2
2023-02-19T08:57:41.911Z,32.2
2023-02-19T08:58:43.313Z,30.8
2023-02-19T08:59:44.724Z,31.2
2023-02-19T09:00:46.129Z,31.8
2023-02-19T09:01:47.607Z,32.4
2023-02-19T09:02:49.024Z,33.6
2023-02-19T09:03:50.467Z,33.4
2023-02-19T09:04:51.865Z,32.7
2023-02-19T09:05:53.250Z,33
2023-02-19T09:06:54.644Z,33.8
2023-02-19T09:07:56.045Z,33.1
2023-02-19T09:08:57.461Z,34.1
2023-02-19T09:09:58.867Z,34.3
2023-02-19T09:11:00.283Z,34
2023-02-19T09:12:01.715Z,34.5
2023-02-19T09:13:03.186Z,34.5
2023-02-19T09:14:04.669Z,34.7
2023-02-19T09:15:06.093Z,34.7
2023-02-19T09:16:07.728Z,34.5
2023-02-19T09:17:09.224Z,33.9
2023-02-19T09:18:10.617Z,32.3
2023-02-19T09:19:12.012Z,30.5
2023-02-19T09:20:13.415Z,31.1
2023-02-19T09:21:14.836Z,31
2023-02-19T09:22:16.255Z,30.9
2023-02-19T09:23:17.628Z,32.7
2023-02-19T09:24:19.013Z,33
2023-02-19T09:25:20.423Z,31.6
2023-02-19T09:26:21.813Z,33
2023-02-19T09:27:23.255Z,34
2023-02-19T09:28:24.670Z,34.2
2023-02-19T09:29:26.097Z,34.4
2023-02-19T09:30:27.597Z,34.7
2023-02-19T09:31:29.256Z,35
2023-02-19T09:32:30.718Z,34.4
2023-02-19T09:33:32.140Z,34.5
2023-02-19T09:34:33.544Z,35
2023-02-19T09:35:35.144Z,34.8
2023-02-19T09:36:36.532Z,34.9
2023-02-19T09:37:37.927Z,34.2
2023-02-19T09:38:39.317Z,34.7
2023-02-19T09:39:40.811Z,34.9
2023-02-19T09:40:42.202Z,32.1
2023-02-19T09:41:43.614Z,32.4
2023-02-19T09:42:44.971Z,33.2
2023-02-19T09:43:46.371Z,32.5
2023-02-19T09:44:47.786Z,33.9
2023-02-19T09:45:49.169Z,32.4
2023-02-19T09:46:50.573Z,32.6
2023-02-19T09:47:51.989Z,33.7
2023-02-19T09:48:53.364Z,32.6
2023-02-19T09:49:54.747Z,33.8
2023-02-19T09:50:56.152Z,33.2
2023-02-19T09:51:57.524Z,33.5
2023-02-19T09:52:59.018Z,32.6
2023-02-19T09:54:00.482Z,32.3
2023-02-19T09:55:01.875Z,34
2023-02-19T09:56:03.291Z,34.5
2023-02-19T09:57:05.002Z,33.8
2023-02-19T09:58:06.848Z,33.1
2023-02-19T09:59:08.241Z,33
2023-02-19T10:00:11.084Z,32.3
2023-02-19T10:01:13.397Z,33.7
2023-02-19T10:02:15.138Z,32.3
2023-02-19T10:03:16.852Z,30.4
2023-02-19T10:04:18.249Z,30
2023-02-19T10:05:19.715Z,30.4
2023-02-19T10:06:21.235Z,30.8
2023-02-19T10:07:22.648Z,31.7
2023-02-19T10:08:24.082Z,32.1
2023-02-19T10:09:25.496Z,31
2023-02-19T10:10:26.901Z,31.9
2023-02-19T10:11:28.376Z,32.5
2023-02-19T10:12:29.989Z,31.7
2023-02-19T10:13:31.392Z,31.5
2023-02-19T10:14:32.769Z,31.1
2023-02-19T10:15:34.286Z,33.6
2023-02-19T10:16:35.725Z,33.3
2023-02-19T10:17:37.122Z,33.2
2023-02-19T10:18:38.502Z,34
2023-02-19T10:19:39.906Z,36.1
2023-02-19T10:20:41.509Z,35
2023-02-19T10:21:42.938Z,35.3
2023-02-19T10:22:44.323Z,34.6
2023-02-19T10:23:45.700Z,34.9
2023-02-19T10:24:47.135Z,34.2
2023-02-19T10:25:48.689Z,33.9
2023-02-19T10:26:50.120Z,34.1
2023-02-19T10:27:51.524Z,34.4
2023-02-19T10:28:52.943Z,35.6
2023-02-19T10:29:54.459Z,35.1
2023-02-19T10:30:55.901Z,33.3
2023-02-19T10:31:57.513Z,35
2023-02-19T10:32:59.098Z,33.4
2023-02-19T10:34:00.632Z,34.1
2023-02-19T10:35:02.037Z,35.9
2023-02-19T10:36:03.432Z,35
2023-02-19T10:37:04.848Z,35.3
2023-02-19T10:38:06.240Z,34.5
2023-02-19T10:39:07.752Z,34.6
2023-02-19T10:40:09.190Z,35.4
2023-02-19T10:41:11.460Z,34.3
2023-02-19T10:42:12.995Z,34.3
2023-02-19T10:43:14.398Z,35.2
2023-02-19T10:44:15.812Z,34.4
2023-02-19T10:45:17.317Z,34.5
2023-02-19T10:46:19.133Z,34.1
2023-02-19T10:47:20.548Z,33
2023-02-19T10:48:22.120Z,35.9
2023-02-19T10:49:23.505Z,35.7
2023-02-19T10:50:24.896Z,35.6
2023-02-19T10:51:26.286Z,37.6
2023-02-19T10:52:27.722Z,35.5
2023-02-19T10:53:29.128Z,35
2023-02-19T10:54:30.694Z,36.6
2023-02-19T10:55:32.116Z,35.2
2023-02-19T10:56:33.517Z,35.2
2023-02-19T10:57:34.955Z,34.6
2023-02-19T10:58:36.360Z,34.7
2023-02-19T10:59:37.774Z,37
2023-02-19T11:00:39.168Z,36.6
2023-02-19T11:01:40.766Z,35.6
2023-02-19T11:02:42.204Z,34.4
2023-02-19T11:03:43.602Z,33.6
2023-02-19T11:04:45.087Z,33.3
2023-02-19T11:05:46.536Z,33.4
2023-02-19T11:06:47.950Z,34
2023-02-19T11:07:49.356Z,33.5
2023-02-19T11:08:50.772Z,33.8
2023-02-19T11:09:52.192Z,35.3
2023-02-19T11:10:53.595Z,36.2
2023-02-19T11:11:55.020Z,36
2023-02-19T11:12:56.438Z,34.1
2023-02-19T11:13:57.838Z,32.5
2023-02-19T11:14:59.333Z,32.8
2023-02-19T11:16:01.052Z,32.7
2023-02-19T11:17:02.471Z,34.4
2023-02-19T11:18:03.874Z,33.9
2023-02-19T11:19:05.278Z,32.9
2023-02-19T11:20:06.690Z,32.8
2023-02-19T11:21:08.192Z,33.7
2023-02-19T11:22:09.631Z,33.6
2023-02-19T11:23:11.043Z,32.4
2023-02-19T11:24:12.438Z,33.1
2023-02-19T11:25:13.821Z,32.8
2023-02-19T11:26:15.207Z,31.8
2023-02-19T11:27:16.609Z,31.8
2023-02-19T11:28:18.001Z,32.6
2023-02-19T11:29:19.399Z,32.1
2023-02-19T11:30:20.936Z,31.9
2023-02-19T11:31:22.800Z,32.3
2023-02-19T11:32:24.326Z,32.3
2023-02-19T11:33:25.748Z,32.2
2023-02-19T11:34:27.206Z,32
2023-02-19T11:35:28.603Z,31.1
2023-02-19T11:36:31.051Z,31.5
2023-02-19T11:37:32.542Z,31.8
2023-02-19T11:38:33.957Z,31.1
2023-02-19T11:39:35.370Z,31.9
2023-02-19T11:40:36.770Z,32.1
2023-02-19T11:41:38.178Z,31.1
2023-02-19T11:42:39.564Z,30.8
2023-02-19T11:43:40.946Z,29.6
2023-02-19T11:44:42.333Z,29.7
2023-02-19T11:45:43.733Z,30.1
2023-02-19T11:46:45.229Z,31.1
2023-02-19T11:47:46.655Z,30.7
2023-02-19T11:48:48.081Z,31.4
2023-02-19T11:49:49.471Z,30.7
2023-02-19T11:50:50.866Z,31.3
2023-02-19T11:51:53.123Z,31.4
2023-02-19T11:52:54.544Z,30.3
2023-02-19T11:53:55.920Z,29.5
2023-02-19T11:54:57.311Z,29.6
2023-02-19T11:55:58.728Z,30.5
2023-02-19T11:57:00.140Z,29.9
2023-02-19T11:58:01.560Z,30.9
2023-02-19T11:59:02.980Z,31.7
2023-02-19T12:00:04.416Z,30.5
2023-02-19T12:01:05.814Z,30.6
2023-02-19T12:02:07.339Z,30.6
2023-02-19T12:03:08.782Z,30.6
2023-02-19T12:04:10.198Z,30.8
2023-02-19T12:05:11.641Z,30.9
2023-02-19T12:06:13.751Z,28.9
2023-02-19T12:07:17.086Z,29.9
2023-02-19T12:08:18.488Z,31
2023-02-19T12:09:19.897Z,30.5
2023-02-19T12:10:21.312Z,29.8
2023-02-19T12:11:22.720Z,29.9
2023-02-19T12:12:24.127Z,29.4
2023-02-19T12:13:25.700Z,29.7
2023-02-19T12:14:27.091Z,30
2023-02-19T12:15:28.540Z,30
2023-02-19T12:16:30.113Z,29.8
2023-02-19T12:17:31.654Z,29.5
2023-02-19T12:18:34.877Z,29.6
2023-02-19T12:19:36.281Z,30.5
2023-02-19T12:20:37.705Z,29.8
2023-02-19T12:21:39.090Z,30.5
2023-02-19T12:22:40.516Z,30
2023-02-19T12:23:41.908Z,29.8
2023-02-19T12:24:43.305Z,28.7
2023-02-19T12:25:44.729Z,28.8
2023-02-19T12:26:46.139Z,28.7
2023-02-19T12:27:47.736Z,29.5
2023-02-19T12:28:49.146Z,29.4
2023-02-19T12:29:50.580Z,28.6
2023-02-19T12:30:52.314Z,29.6
2023-02-19T12:31:53.836Z,29.1
2023-02-19T12:32:55.314Z,28.9
2023-02-19T12:33:56.726Z,28.6
2023-02-19T12:34:58.131Z,28.8
2023-02-19T12:35:59.525Z,28.9
2023-02-19T12:37:00.921Z,28.5
2023-02-19T12:38:02.314Z,29.7
2023-02-19T12:39:03.787Z,29.2
2023-02-19T12:40:05.181Z,29.3
2023-02-19T12:41:06.608Z,28.1
2023-02-19T12:42:08.004Z,28.7
2023-02-19T12:43:09.442Z,29
2023-02-19T12:44:10.865Z,28.6
2023-02-19T12:45:12.275Z,28.8
2023-02-19T12:46:14.761Z,28.3
2023-02-19T12:47:16.651Z,28.5
2023-02-19T12:48:18.063Z,29.1
2023-02-19T12:49:19.475Z,29.1
2023-02-19T12:50:20.880Z,29
2023-02-19T12:51:22.286Z,28.8
2023-02-19T12:52:23.720Z,28.8
2023-02-19T12:53:25.104Z,29.4
2023-02-19T12:54:26.500Z,29.6
2023-02-19T12:55:27.933Z,29.9
2023-02-19T12:56:29.359Z,29.2
2023-02-19T12:57:30.732Z,28.3
2023-02-19T12:58:32.136Z,29
2023-02-19T12:59:33.545Z,29.9
2023-02-19T13:00:34.975Z,28.2
2023-02-19T13:01:36.571Z,28
2023-02-19T13:02:38.174Z,28.8
2023-02-19T13:03:39.712Z,28.1
2023-02-19T13:04:41.071Z,29.3
2023-02-19T13:05:42.468Z,28.9
2023-02-19T13:06:43.932Z,28.4
2023-02-19T13:07:45.348Z,28.2
2023-02-19T13:09:07.078Z,28.3
2023-02-19T13:10:08.633Z,28.1
2023-02-19T13:11:11.075Z,29.1
2023-02-19T13:12:12.691Z,29.8
2023-02-19T13:13:14.086Z,30.3
2023-02-19T13:14:15.511Z,29.5
2023-02-19T13:15:16.934Z,29.8
2023-02-19T13:16:19.587Z,29.9
2023-02-19T13:17:21.166Z,29.5
2023-02-19T13:18:23.217Z,29.4
2023-02-19T13:19:24.646Z,29.3
2023-02-19T13:20:26.036Z,29
2023-02-19T13:21:27.468Z,28
2023-02-19T13:22:29.083Z,29.2
2023-02-19T13:23:30.491Z,28.8
2023-02-19T13:24:31.900Z,29
2023-02-19T13:25:33.286Z,28.9
2023-02-19T13:26:34.680Z,28.8
2023-02-19T13:27:36.092Z,28.5
2023-02-19T13:28:37.557Z,28.6
2023-02-19T13:29:38.969Z,29.3
2023-02-19T13:30:40.732Z,29.4
2023-02-19T13:31:42.643Z,28.9
2023-02-19T13:32:44.202Z,29.1
2023-02-19T13:33:45.583Z,29.1
2023-02-19T13:34:47.007Z,29.4
2023-02-19T13:35:48.412Z,28.7
2023-02-19T13:36:49.807Z,28.9
2023-02-19T13:37:51.229Z,27.8
2023-02-19T13:38:52.636Z,28.6
2023-02-19T13:39:54.128Z,29.6
2023-02-19T13:40:55.558Z,28.8
2023-02-19T13:41:56.976Z,28.5
2023-02-19T13:42:58.419Z,28.3
2023-02-19T13:44:00.030Z,28.5
2023-02-19T13:45:01.438Z,27.7
2023-02-19T13:46:02.892Z,27.7